sensor_id;sensor_type;location;lat;lon;timestamp;P1;durP1;ratioP1;P2;durP2;ratioP2
6475;SDS011;3271;51.910;5.840;2023-09-12T00:01:15;30.98;;;23.35;;
6475;SDS011;3271;51.910;5.840;2023-09-12T00:03:41;22.13;;;19.80;;
6475;SDS011;3271;51.910;5.840;2023-09-12T00:06:07;26.60;;;21.67;;
6475;SDS011;3271;51.910;5.840;2023-09-12T00:08:33;22.27;;;19.90;;
6475;SDS011;3271;51.910;5.840;2023-09-12T00:11:06;23.58;;;20.30;;
6475;SDS011;3271;51.910;5.840;2023-09-12T00:13:35;27.17;;;20.40;;
6475;SDS011;3271;51.910;5.840;2023-09-12T00:16:01;22.15;;;19.83;;
6475;SDS011;3271;51.910;5.840;2023-09-12T00:18:28;23.27;;;19.90;;
6475;SDS011;3271;51.910;5.840;2023-09-12T00:20:54;23.65;;;20.20;;
6475;SDS011;3271;51.910;5.840;2023-09-12T00:23:20;24.42;;;20.95;;
6475;SDS011;3271;51.910;5.840;2023-09-12T00:25:48;21.25;;;19.02;;
6475;SDS011;3271;51.910;5.840;2023-09-12T00:28:15;23.25;;;20.17;;
6475;SDS011;3271;51.910;5.840;2023-09-12T00:30:41;24.73;;;20.95;;
6475;SDS011;3271;51.910;5.840;2023-09-12T00:33:06;22.20;;;19.20;;
6475;SDS011;3271;51.910;5.840;2023-09-12T00:35:32;22.15;;;19.75;;
6475;SDS011;3271;51.910;5.840;2023-09-12T00:37:58;25.40;;;21.10;;
6475;SDS011;3271;51.910;5.840;2023-09-12T00:40:24;22.08;;;19.60;;
6475;SDS011;3271;51.910;5.840;2023-09-12T00:42:50;23.02;;;18.67;;
6475;SDS011;3271;51.910;5.840;2023-09-12T00:45:16;24.17;;;19.88;;
6475;SDS011;3271;51.910;5.840;2023-09-12T00:47:42;31.17;;;20.92;;
6475;SDS011;3271;51.910;5.840;2023-09-12T00:50:08;24.05;;;20.38;;
6475;SDS011;3271;51.910;5.840;2023-09-12T00:52:35;25.58;;;20.83;;
6475;SDS011;3271;51.910;5.840;2023-09-12T00:55:01;25.08;;;21.08;;
6475;SDS011;3271;51.910;5.840;2023-09-12T00:57:28;23.40;;;19.52;;
6475;SDS011;3271;51.910;5.840;2023-09-12T00:59:54;22.55;;;19.98;;
6475;SDS011;3271;51.910;5.840;2023-09-12T01:02:20;25.90;;;19.35;;
6475;SDS011;3271;51.910;5.840;2023-09-12T01:04:47;26.45;;;20.42;;
6475;SDS011;3271;51.910;5.840;2023-09-12T01:07:13;26.65;;;21.00;;
6475;SDS011;3271;51.910;5.840;2023-09-12T01:09:40;26.90;;;21.40;;
6475;SDS011;3271;51.910;5.840;2023-09-12T01:12:06;24.05;;;20.00;;
6475;SDS011;3271;51.910;5.840;2023-09-12T01:14:32;26.42;;;20.25;;
6475;SDS011;3271;51.910;5.840;2023-09-12T01:16:58;23.65;;;20.88;;
6475;SDS011;3271;51.910;5.840;2023-09-12T01:19:26;24.92;;;19.80;;
6475;SDS011;3271;51.910;5.840;2023-09-12T01:25:00;25.40;;;19.73;;
6475;SDS011;3271;51.910;5.840;2023-09-12T01:27:35;23.27;;;19.83;;
6475;SDS011;3271;51.910;5.840;2023-09-12T01:30:04;24.67;;;19.23;;
6475;SDS011;3271;51.910;5.840;2023-09-12T01:32:33;22.65;;;19.20;;
6475;SDS011;3271;51.910;5.840;2023-09-12T01:35:00;27.05;;;20.33;;
6475;SDS011;3271;51.910;5.840;2023-09-12T01:37:29;24.63;;;19.85;;
6475;SDS011;3271;51.910;5.840;2023-09-12T01:39:55;24.67;;;19.67;;
6475;SDS011;3271;51.910;5.840;2023-09-12T01:42:21;23.35;;;20.25;;
6475;SDS011;3271;51.910;5.840;2023-09-12T01:44:49;27.25;;;20.60;;
6475;SDS011;3271;51.910;5.840;2023-09-12T01:47:16;24.63;;;19.92;;
6475;SDS011;3271;51.910;5.840;2023-09-12T01:49:43;24.98;;;18.25;;
6475;SDS011;3271;51.910;5.840;2023-09-12T01:52:11;24.45;;;19.70;;
6475;SDS011;3271;51.910;5.840;2023-09-12T01:54:37;21.85;;;18.63;;
6475;SDS011;3271;51.910;5.840;2023-09-12T01:57:03;24.73;;;19.48;;
6475;SDS011;3271;51.910;5.840;2023-09-12T01:59:30;22.35;;;18.65;;
6475;SDS011;3271;51.910;5.840;2023-09-12T02:01:56;31.40;;;19.13;;
6475;SDS011;3271;51.910;5.840;2023-09-12T02:04:21;26.17;;;18.95;;
6475;SDS011;3271;51.910;5.840;2023-09-12T02:06:47;21.70;;;18.85;;
6475;SDS011;3271;51.910;5.840;2023-09-12T02:09:13;21.83;;;17.73;;
6475;SDS011;3271;51.910;5.840;2023-09-12T02:11:39;22.52;;;17.75;;
6475;SDS011;3271;51.910;5.840;2023-09-12T02:14:05;21.88;;;18.13;;
6475;SDS011;3271;51.910;5.840;2023-09-12T02:16:31;21.60;;;18.58;;
6475;SDS011;3271;51.910;5.840;2023-09-12T02:18:57;25.42;;;19.85;;
6475;SDS011;3271;51.910;5.840;2023-09-12T02:21:23;23.02;;;19.10;;
6475;SDS011;3271;51.910;5.840;2023-09-12T02:23:49;23.10;;;18.27;;
6475;SDS011;3271;51.910;5.840;2023-09-12T02:26:15;23.65;;;18.80;;
6475;SDS011;3271;51.910;5.840;2023-09-12T02:28:41;20.80;;;18.48;;
6475;SDS011;3271;51.910;5.840;2023-09-12T02:31:10;21.10;;;18.27;;
6475;SDS011;3271;51.910;5.840;2023-09-12T02:33:37;25.55;;;18.73;;
6475;SDS011;3271;51.910;5.840;2023-09-12T02:36:03;20.35;;;18.10;;
6475;SDS011;3271;51.910;5.840;2023-09-12T02:38:30;22.45;;;18.60;;
6475;SDS011;3271;51.910;5.840;2023-09-12T02:40:56;21.67;;;17.90;;
6475;SDS011;3271;51.910;5.840;2023-09-12T02:43:21;24.52;;;17.42;;
6475;SDS011;3271;51.910;5.840;2023-09-12T02:45:47;23.00;;;17.67;;
6475;SDS011;3271;51.910;5.840;2023-09-12T02:48:13;20.92;;;18.63;;
6475;SDS011;3271;51.910;5.840;2023-09-12T02:50:39;20.13;;;17.48;;
6475;SDS011;3271;51.910;5.840;2023-09-12T02:53:05;23.50;;;17.73;;
6475;SDS011;3271;51.910;5.840;2023-09-12T02:55:31;19.05;;;17.15;;
6475;SDS011;3271;51.910;5.840;2023-09-12T02:57:57;13.20;;;11.90;;
6475;SDS011;3271;51.910;5.840;2023-09-12T03:00:23;15.05;;;13.45;;
6475;SDS011;3271;51.910;5.840;2023-09-12T03:02:49;14.85;;;13.27;;
6475;SDS011;3271;51.910;5.840;2023-09-12T03:05:15;14.23;;;12.93;;
6475;SDS011;3271;51.910;5.840;2023-09-12T03:07:41;11.63;;;10.52;;
6475;SDS011;3271;51.910;5.840;2023-09-12T03:10:07;11.40;;;10.30;;
6475;SDS011;3271;51.910;5.840;2023-09-12T03:12:35;11.77;;;10.68;;
6475;SDS011;3271;51.910;5.840;2023-09-12T03:15:02;11.32;;;10.32;;
6475;SDS011;3271;51.910;5.840;2023-09-12T03:17:28;12.25;;;11.15;;
6475;SDS011;3271;51.910;5.840;2023-09-12T03:19:54;11.50;;;10.30;;
6475;SDS011;3271;51.910;5.840;2023-09-12T03:22:20;12.70;;;11.50;;
6475;SDS011;3271;51.910;5.840;2023-09-12T03:24:46;13.48;;;12.20;;
6475;SDS011;3271;51.910;5.840;2023-09-12T03:27:12;14.15;;;12.77;;
6475;SDS011;3271;51.910;5.840;2023-09-12T03:29:38;13.93;;;12.43;;
6475;SDS011;3271;51.910;5.840;2023-09-12T03:32:04;15.43;;;14.00;;
6475;SDS011;3271;51.910;5.840;2023-09-12T03:34:29;15.05;;;13.55;;
6475;SDS011;3271;51.910;5.840;2023-09-12T03:36:55;13.02;;;11.80;;
6475;SDS011;3271;51.910;5.840;2023-09-12T03:39:21;15.10;;;13.60;;
6475;SDS011;3271;51.910;5.840;2023-09-12T03:41:47;13.63;;;12.32;;
6475;SDS011;3271;51.910;5.840;2023-09-12T03:44:13;15.25;;;13.82;;
6475;SDS011;3271;51.910;5.840;2023-09-12T03:46:39;15.18;;;13.77;;
6475;SDS011;3271;51.910;5.840;2023-09-12T03:49:05;15.63;;;13.93;;
6475;SDS011;3271;51.910;5.840;2023-09-12T03:51:31;14.77;;;13.23;;
6475;SDS011;3271;51.910;5.840;2023-09-12T03:53:57;13.15;;;11.95;;
6475;SDS011;3271;51.910;5.840;2023-09-12T03:56:23;12.57;;;11.27;;
6475;SDS011;3271;51.910;5.840;2023-09-12T03:58:49;14.75;;;13.35;;
6475;SDS011;3271;51.910;5.840;2023-09-12T04:01:15;15.10;;;13.60;;
6475;SDS011;3271;51.910;5.840;2023-09-12T04:03:41;15.13;;;13.63;;
6475;SDS011;3271;51.910;5.840;2023-09-12T04:06:07;16.88;;;14.90;;
6475;SDS011;3271;51.910;5.840;2023-09-12T04:08:33;15.75;;;14.15;;
6475;SDS011;3271;51.910;5.840;2023-09-12T04:10:59;16.73;;;14.88;;
6475;SDS011;3271;51.910;5.840;2023-09-12T04:13:24;16.38;;;14.77;;
6475;SDS011;3271;51.910;5.840;2023-09-12T04:15:50;16.38;;;14.27;;
6475;SDS011;3271;51.910;5.840;2023-09-12T04:18:16;15.73;;;13.18;;
6475;SDS011;3271;51.910;5.840;2023-09-12T04:20:42;17.52;;;15.63;;
6475;SDS011;3271;51.910;5.840;2023-09-12T04:23:08;18.85;;;15.68;;
6475;SDS011;3271;51.910;5.840;2023-09-12T04:25:34;17.42;;;15.40;;
6475;SDS011;3271;51.910;5.840;2023-09-12T04:28:00;17.88;;;15.93;;
6475;SDS011;3271;51.910;5.840;2023-09-12T04:30:26;18.25;;;14.30;;
6475;SDS011;3271;51.910;5.840;2023-09-12T04:32:52;15.60;;;13.85;;
6475;SDS011;3271;51.910;5.840;2023-09-12T04:35:18;16.42;;;14.55;;
6475;SDS011;3271;51.910;5.840;2023-09-12T04:37:45;17.15;;;15.32;;
6475;SDS011;3271;51.910;5.840;2023-09-12T04:40:11;17.45;;;15.73;;
6475;SDS011;3271;51.910;5.840;2023-09-12T04:42:37;18.88;;;14.80;;
6475;SDS011;3271;51.910;5.840;2023-09-12T04:45:03;19.33;;;16.55;;
6475;SDS011;3271;51.910;5.840;2023-09-12T04:47:29;19.33;;;17.33;;
6475;SDS011;3271;51.910;5.840;2023-09-12T04:49:55;19.73;;;17.60;;
6475;SDS011;3271;51.910;5.840;2023-09-12T04:52:21;19.90;;;17.08;;
6475;SDS011;3271;51.910;5.840;2023-09-12T04:54:47;18.88;;;16.95;;
6475;SDS011;3271;51.910;5.840;2023-09-12T04:57:13;21.13;;;17.38;;
6475;SDS011;3271;51.910;5.840;2023-09-12T04:59:39;18.52;;;16.63;;
6475;SDS011;3271;51.910;5.840;2023-09-12T05:02:05;18.23;;;16.33;;
6475;SDS011;3271;51.910;5.840;2023-09-12T05:04:30;21.10;;;17.52;;
6475;SDS011;3271;51.910;5.840;2023-09-12T05:06:57;24.90;;;19.90;;
6475;SDS011;3271;51.910;5.840;2023-09-12T05:09:23;24.98;;;19.48;;
6475;SDS011;3271;51.910;5.840;2023-09-12T05:11:48;27.50;;;20.63;;
6475;SDS011;3271;51.910;5.840;2023-09-12T05:14:15;25.08;;;19.30;;
6475;SDS011;3271;51.910;5.840;2023-09-12T05:16:41;26.50;;;21.23;;
6475;SDS011;3271;51.910;5.840;2023-09-12T05:19:06;28.27;;;23.52;;
6475;SDS011;3271;51.910;5.840;2023-09-12T05:21:32;29.35;;;22.52;;
6475;SDS011;3271;51.910;5.840;2023-09-12T05:23:58;25.42;;;20.88;;
6475;SDS011;3271;51.910;5.840;2023-09-12T05:26:24;26.27;;;21.30;;
6475;SDS011;3271;51.910;5.840;2023-09-12T05:28:50;30.13;;;22.50;;
6475;SDS011;3271;51.910;5.840;2023-09-12T05:31:17;28.45;;;23.10;;
6475;SDS011;3271;51.910;5.840;2023-09-12T05:33:43;28.95;;;22.33;;
6475;SDS011;3271;51.910;5.840;2023-09-12T05:36:09;27.55;;;22.73;;
6475;SDS011;3271;51.910;5.840;2023-09-12T05:38:35;23.77;;;20.50;;
6475;SDS011;3271;51.910;5.840;2023-09-12T05:41:01;29.15;;;23.15;;
6475;SDS011;3271;51.910;5.840;2023-09-12T05:43:27;25.75;;;21.25;;
6475;SDS011;3271;51.910;5.840;2023-09-12T05:45:53;28.95;;;21.40;;
6475;SDS011;3271;51.910;5.840;2023-09-12T05:48:19;27.27;;;22.15;;
6475;SDS011;3271;51.910;5.840;2023-09-12T05:50:45;32.20;;;25.83;;
6475;SDS011;3271;51.910;5.840;2023-09-12T05:53:11;29.17;;;23.17;;
6475;SDS011;3271;51.910;5.840;2023-09-12T05:55:37;31.55;;;25.17;;
6475;SDS011;3271;51.910;5.840;2023-09-12T05:58:03;31.35;;;25.25;;
6475;SDS011;3271;51.910;5.840;2023-09-12T06:00:30;37.22;;;27.27;;
6475;SDS011;3271;51.910;5.840;2023-09-12T06:02:56;27.85;;;23.50;;
6475;SDS011;3271;51.910;5.840;2023-09-12T06:05:22;32.63;;;25.77;;
6475;SDS011;3271;51.910;5.840;2023-09-12T06:07:48;34.15;;;27.52;;
6475;SDS011;3271;51.910;5.840;2023-09-12T06:10:14;34.83;;;26.60;;
6475;SDS011;3271;51.910;5.840;2023-09-12T06:12:40;38.30;;;29.98;;
6475;SDS011;3271;51.910;5.840;2023-09-12T06:15:06;40.60;;;30.80;;
6475;SDS011;3271;51.910;5.840;2023-09-12T06:17:32;39.08;;;29.33;;
6475;SDS011;3271;51.910;5.840;2023-09-12T06:19:58;35.58;;;28.98;;
6475;SDS011;3271;51.910;5.840;2023-09-12T06:22:24;38.50;;;29.60;;
6475;SDS011;3271;51.910;5.840;2023-09-12T06:24:50;42.63;;;29.65;;
6475;SDS011;3271;51.910;5.840;2023-09-12T06:27:16;36.72;;;27.45;;
6475;SDS011;3271;51.910;5.840;2023-09-12T06:29:44;36.42;;;27.52;;
6475;SDS011;3271;51.910;5.840;2023-09-12T06:32:12;37.88;;;28.70;;
6475;SDS011;3271;51.910;5.840;2023-09-12T06:34:38;37.15;;;27.25;;
6475;SDS011;3271;51.910;5.840;2023-09-12T06:37:04;36.38;;;28.27;;
6475;SDS011;3271;51.910;5.840;2023-09-12T06:39:30;36.97;;;27.50;;
6475;SDS011;3271;51.910;5.840;2023-09-12T06:41:56;33.47;;;26.88;;
6475;SDS011;3271;51.910;5.840;2023-09-12T06:44:22;34.42;;;29.63;;
6475;SDS011;3271;51.910;5.840;2023-09-12T06:46:47;37.50;;;27.67;;
6475;SDS011;3271;51.910;5.840;2023-09-12T06:49:13;36.78;;;27.70;;
6475;SDS011;3271;51.910;5.840;2023-09-12T06:51:39;33.55;;;26.67;;
6475;SDS011;3271;51.910;5.840;2023-09-12T06:54:05;36.55;;;28.27;;
6475;SDS011;3271;51.910;5.840;2023-09-12T06:56:31;38.85;;;29.17;;
6475;SDS011;3271;51.910;5.840;2023-09-12T06:59:02;36.20;;;27.67;;
6475;SDS011;3271;51.910;5.840;2023-09-12T07:01:29;34.75;;;27.92;;
6475;SDS011;3271;51.910;5.840;2023-09-12T07:03:55;35.85;;;27.83;;
6475;SDS011;3271;51.910;5.840;2023-09-12T07:06:21;36.25;;;26.42;;
6475;SDS011;3271;51.910;5.840;2023-09-12T07:08:47;38.40;;;30.52;;
6475;SDS011;3271;51.910;5.840;2023-09-12T07:11:13;37.28;;;30.15;;
6475;SDS011;3271;51.910;5.840;2023-09-12T07:13:39;39.55;;;30.80;;
6475;SDS011;3271;51.910;5.840;2023-09-12T07:16:05;39.70;;;30.92;;
6475;SDS011;3271;51.910;5.840;2023-09-12T07:18:31;39.20;;;30.95;;
6475;SDS011;3271;51.910;5.840;2023-09-12T07:21:00;42.95;;;32.20;;
6475;SDS011;3271;51.910;5.840;2023-09-12T07:23:27;41.28;;;29.27;;
6475;SDS011;3271;51.910;5.840;2023-09-12T07:25:53;40.53;;;30.92;;
6475;SDS011;3271;51.910;5.840;2023-09-12T07:28:20;39.63;;;31.33;;
6475;SDS011;3271;51.910;5.840;2023-09-12T07:30:46;40.17;;;30.38;;
6475;SDS011;3271;51.910;5.840;2023-09-12T07:33:12;38.55;;;30.73;;
6475;SDS011;3271;51.910;5.840;2023-09-12T07:35:38;39.80;;;29.55;;
6475;SDS011;3271;51.910;5.840;2023-09-12T07:38:04;36.88;;;28.95;;
6475;SDS011;3271;51.910;5.840;2023-09-12T07:40:30;47.88;;;38.88;;
6475;SDS011;3271;51.910;5.840;2023-09-12T07:42:56;49.72;;;38.65;;
6475;SDS011;3271;51.910;5.840;2023-09-12T07:45:22;41.17;;;31.88;;
6475;SDS011;3271;51.910;5.840;2023-09-12T07:47:48;42.47;;;30.83;;
6475;SDS011;3271;51.910;5.840;2023-09-12T07:50:14;36.97;;;28.73;;
6475;SDS011;3271;51.910;5.840;2023-09-12T07:52:40;40.05;;;30.90;;
6475;SDS011;3271;51.910;5.840;2023-09-12T07:55:06;37.47;;;29.30;;
6475;SDS011;3271;51.910;5.840;2023-09-12T07:57:32;40.75;;;30.63;;
6475;SDS011;3271;51.910;5.840;2023-09-12T07:59:59;40.75;;;30.63;;
6475;SDS011;3271;51.910;5.840;2023-09-12T08:02:25;38.53;;;29.27;;
6475;SDS011;3271;51.910;5.840;2023-09-12T08:04:51;41.95;;;31.45;;
6475;SDS011;3271;51.910;5.840;2023-09-12T08:07:18;39.30;;;30.60;;
6475;SDS011;3271;51.910;5.840;2023-09-12T08:09:49;41.65;;;29.95;;
6475;SDS011;3271;51.910;5.840;2023-09-12T08:12:15;40.28;;;30.10;;
6475;SDS011;3271;51.910;5.840;2023-09-12T08:14:41;40.13;;;29.92;;
6475;SDS011;3271;51.910;5.840;2023-09-12T08:17:07;38.55;;;29.30;;
6475;SDS011;3271;51.910;5.840;2023-09-12T08:19:33;42.80;;;31.38;;
6475;SDS011;3271;51.910;5.840;2023-09-12T08:21:59;41.03;;;30.38;;
6475;SDS011;3271;51.910;5.840;2023-09-12T08:24:25;31.45;;;25.95;;
6475;SDS011;3271;51.910;5.840;2023-09-12T08:26:50;32.47;;;24.30;;
6475;SDS011;3271;51.910;5.840;2023-09-12T08:29:16;33.75;;;26.52;;
6475;SDS011;3271;51.910;5.840;2023-09-12T08:31:42;34.25;;;25.98;;
6475;SDS011;3271;51.910;5.840;2023-09-12T08:34:10;37.42;;;27.08;;
6475;SDS011;3271;51.910;5.840;2023-09-12T08:36:35;31.05;;;23.65;;
6475;SDS011;3271;51.910;5.840;2023-09-12T08:39:01;32.90;;;26.58;;
6475;SDS011;3271;51.910;5.840;2023-09-12T08:41:28;34.65;;;26.48;;
6475;SDS011;3271;51.910;5.840;2023-09-12T08:43:54;30.52;;;21.63;;
6475;SDS011;3271;51.910;5.840;2023-09-12T08:46:21;28.98;;;23.08;;
6475;SDS011;3271;51.910;5.840;2023-09-12T08:48:49;29.63;;;23.63;;
6475;SDS011;3271;51.910;5.840;2023-09-12T08:51:15;27.30;;;22.63;;
6475;SDS011;3271;51.910;5.840;2023-09-12T08:53:41;32.85;;;23.83;;
6475;SDS011;3271;51.910;5.840;2023-09-12T08:56:07;29.75;;;23.65;;
6475;SDS011;3271;51.910;5.840;2023-09-12T08:58:34;23.83;;;18.80;;
6475;SDS011;3271;51.910;5.840;2023-09-12T09:01:00;26.48;;;19.55;;
6475;SDS011;3271;51.910;5.840;2023-09-12T09:03:28;21.38;;;18.95;;
6475;SDS011;3271;51.910;5.840;2023-09-12T09:05:54;24.55;;;19.38;;
6475;SDS011;3271;51.910;5.840;2023-09-12T09:08:21;24.50;;;19.98;;
6475;SDS011;3271;51.910;5.840;2023-09-12T09:10:54;23.88;;;21.27;;
6475;SDS011;3271;51.910;5.840;2023-09-12T09:13:20;25.27;;;20.70;;
6475;SDS011;3271;51.910;5.840;2023-09-12T09:15:46;26.35;;;19.80;;
6475;SDS011;3271;51.910;5.840;2023-09-12T09:18:12;20.67;;;17.10;;
6475;SDS011;3271;51.910;5.840;2023-09-12T09:20:38;21.83;;;18.08;;
6475;SDS011;3271;51.910;5.840;2023-09-12T09:23:06;27.65;;;22.98;;
6475;SDS011;3271;51.910;5.840;2023-09-12T09:25:36;22.83;;;19.45;;
6475;SDS011;3271;51.910;5.840;2023-09-12T09:28:05;18.52;;;15.88;;
6475;SDS011;3271;51.910;5.840;2023-09-12T09:33:06;20.55;;;16.80;;
6475;SDS011;3271;51.910;5.840;2023-09-12T09:35:32;20.45;;;18.35;;
6475;SDS011;3271;51.910;5.840;2023-09-12T09:37:58;19.60;;;17.50;;
6475;SDS011;3271;51.910;5.840;2023-09-12T09:40:24;21.48;;;18.52;;
6475;SDS011;3271;51.910;5.840;2023-09-12T09:42:58;18.10;;;16.15;;
6475;SDS011;3271;51.910;5.840;2023-09-12T09:45:25;19.15;;;17.15;;
6475;SDS011;3271;51.910;5.840;2023-09-12T09:47:51;21.70;;;19.42;;
6475;SDS011;3271;51.910;5.840;2023-09-12T09:50:17;22.20;;;19.13;;
6475;SDS011;3271;51.910;5.840;2023-09-12T09:52:43;21.08;;;17.98;;
6475;SDS011;3271;51.910;5.840;2023-09-12T09:55:15;18.95;;;17.00;;
6475;SDS011;3271;51.910;5.840;2023-09-12T09:57:41;20.23;;;18.10;;
6475;SDS011;3271;51.910;5.840;2023-09-12T10:00:07;17.10;;;15.35;;
6475;SDS011;3271;51.910;5.840;2023-09-12T10:02:36;18.60;;;16.05;;
6475;SDS011;3271;51.910;5.840;2023-09-12T10:05:05;17.77;;;14.93;;
6475;SDS011;3271;51.910;5.840;2023-09-12T10:07:32;16.40;;;14.65;;
6475;SDS011;3271;51.910;5.840;2023-09-12T10:09:59;16.00;;;13.55;;
6475;SDS011;3271;51.910;5.840;2023-09-12T10:12:28;16.52;;;14.30;;
6475;SDS011;3271;51.910;5.840;2023-09-12T10:14:56;16.80;;;14.98;;
6475;SDS011;3271;51.910;5.840;2023-09-12T10:17:23;15.85;;;12.80;;
6475;SDS011;3271;51.910;5.840;2023-09-12T10:19:54;14.52;;;13.10;;
6475;SDS011;3271;51.910;5.840;2023-09-12T10:22:22;14.38;;;11.50;;
6475;SDS011;3271;51.910;5.840;2023-09-12T10:24:49;13.95;;;11.02;;
6475;SDS011;3271;51.910;5.840;2023-09-12T10:27:19;11.00;;;9.93;;
6475;SDS011;3271;51.910;5.840;2023-09-12T10:29:46;13.43;;;10.45;;
6475;SDS011;3271;51.910;5.840;2023-09-12T10:32:14;10.55;;;8.88;;
6475;SDS011;3271;51.910;5.840;2023-09-12T10:34:41;11.25;;;9.23;;
6475;SDS011;3271;51.910;5.840;2023-09-12T10:37:10;10.07;;;8.95;;
6475;SDS011;3271;51.910;5.840;2023-09-12T10:39:37;13.07;;;10.55;;
6475;SDS011;3271;51.910;5.840;2023-09-12T10:42:04;12.77;;;10.63;;
6475;SDS011;3271;51.910;5.840;2023-09-12T10:44:30;11.43;;;10.15;;
6475;SDS011;3271;51.910;5.840;2023-09-12T10:46:57;13.18;;;10.85;;
6475;SDS011;3271;51.910;5.840;2023-09-12T10:49:23;12.30;;;9.55;;
6475;SDS011;3271;51.910;5.840;2023-09-12T10:51:49;12.90;;;9.10;;
6475;SDS011;3271;51.910;5.840;2023-09-12T10:54:16;16.77;;;14.07;;
6475;SDS011;3271;51.910;5.840;2023-09-12T10:57:10;15.55;;;13.32;;
6475;SDS011;3271;51.910;5.840;2023-09-12T11:00:23;12.85;;;11.55;;
6475;SDS011;3271;51.910;5.840;2023-09-12T11:04:54;14.90;;;12.63;;
6475;SDS011;3271;51.910;5.840;2023-09-12T11:07:30;14.05;;;12.18;;
6475;SDS011;3271;51.910;5.840;2023-09-12T11:10:15;13.80;;;11.48;;
6475;SDS011;3271;51.910;5.840;2023-09-12T11:12:43;13.55;;;10.82;;
6475;SDS011;3271;51.910;5.840;2023-09-12T11:15:09;22.00;;;18.27;;
6475;SDS011;3271;51.910;5.840;2023-09-12T11:17:45;16.65;;;13.10;;
6475;SDS011;3271;51.910;5.840;2023-09-12T11:20:12;14.43;;;11.50;;
6475;SDS011;3271;51.910;5.840;2023-09-12T11:22:39;11.50;;;9.98;;
6475;SDS011;3271;51.910;5.840;2023-09-12T11:27:45;10.52;;;9.32;;
6475;SDS011;3271;51.910;5.840;2023-09-12T11:30:11;11.23;;;9.75;;
6475;SDS011;3271;51.910;5.840;2023-09-12T11:32:37;11.77;;;10.15;;
6475;SDS011;3271;51.910;5.840;2023-09-12T11:35:07;12.77;;;10.02;;
6475;SDS011;3271;51.910;5.840;2023-09-12T11:37:33;11.50;;;8.48;;
6475;SDS011;3271;51.910;5.840;2023-09-12T11:40:02;12.35;;;9.13;;
6475;SDS011;3271;51.910;5.840;2023-09-12T11:42:28;12.55;;;9.98;;
6475;SDS011;3271;51.910;5.840;2023-09-12T11:44:53;10.07;;;9.05;;
6475;SDS011;3271;51.910;5.840;2023-09-12T11:47:20;12.75;;;9.73;;
6475;SDS011;3271;51.910;5.840;2023-09-12T11:49:46;11.90;;;9.15;;
6475;SDS011;3271;51.910;5.840;2023-09-12T11:52:13;8.90;;;7.43;;
6475;SDS011;3271;51.910;5.840;2023-09-12T11:54:41;10.05;;;9.00;;
6475;SDS011;3271;51.910;5.840;2023-09-12T11:57:10;13.68;;;10.38;;
6475;SDS011;3271;51.910;5.840;2023-09-12T11:59:41;12.23;;;9.65;;
6475;SDS011;3271;51.910;5.840;2023-09-12T12:02:10;14.00;;;11.75;;
6475;SDS011;3271;51.910;5.840;2023-09-12T12:04:37;9.95;;;8.93;;
6475;SDS011;3271;51.910;5.840;2023-09-12T12:07:03;12.10;;;9.50;;
6475;SDS011;3271;51.910;5.840;2023-09-12T12:09:29;12.48;;;11.00;;
6475;SDS011;3271;51.910;5.840;2023-09-12T12:11:55;9.65;;;8.60;;
6475;SDS011;3271;51.910;5.840;2023-09-12T12:14:25;18.52;;;10.80;;
6475;SDS011;3271;51.910;5.840;2023-09-12T12:16:51;9.52;;;7.60;;
6475;SDS011;3271;51.910;5.840;2023-09-12T12:19:17;10.35;;;7.47;;
6475;SDS011;3271;51.910;5.840;2023-09-12T12:21:43;7.75;;;6.88;;
6475;SDS011;3271;51.910;5.840;2023-09-12T12:24:10;8.48;;;7.63;;
6475;SDS011;3271;51.910;5.840;2023-09-12T12:26:37;9.93;;;7.45;;
6475;SDS011;3271;51.910;5.840;2023-09-12T12:29:04;5.95;;;5.35;;
6475;SDS011;3271;51.910;5.840;2023-09-12T12:31:30;5.63;;;4.63;;
6475;SDS011;3271;51.910;5.840;2023-09-12T12:33:56;6.47;;;4.25;;
6475;SDS011;3271;51.910;5.840;2023-09-12T12:36:24;5.50;;;5.00;;
6475;SDS011;3271;51.910;5.840;2023-09-12T12:38:50;8.98;;;7.65;;
6475;SDS011;3271;51.910;5.840;2023-09-12T12:41:17;6.93;;;5.88;;
6475;SDS011;3271;51.910;5.840;2023-09-12T12:43:48;7.45;;;5.65;;
6475;SDS011;3271;51.910;5.840;2023-09-12T12:46:15;6.28;;;5.10;;
6475;SDS011;3271;51.910;5.840;2023-09-12T12:48:42;7.45;;;3.97;;
6475;SDS011;3271;51.910;5.840;2023-09-12T12:51:12;4.57;;;3.40;;
6475;SDS011;3271;51.910;5.840;2023-09-12T12:53:41;5.20;;;3.10;;
6475;SDS011;3271;51.910;5.840;2023-09-12T12:56:08;5.75;;;4.40;;
6475;SDS011;3271;51.910;5.840;2023-09-12T12:58:34;8.60;;;7.75;;
6475;SDS011;3271;51.910;5.840;2023-09-12T13:01:00;8.93;;;7.85;;
6475;SDS011;3271;51.910;5.840;2023-09-12T13:03:26;8.60;;;6.78;;
6475;SDS011;3271;51.910;5.840;2023-09-12T13:05:52;9.02;;;6.55;;
6475;SDS011;3271;51.910;5.840;2023-09-12T13:08:17;8.20;;;6.10;;
6475;SDS011;3271;51.910;5.840;2023-09-12T13:10:44;7.85;;;5.35;;
6475;SDS011;3271;51.910;5.840;2023-09-12T13:13:10;6.25;;;5.65;;
6475;SDS011;3271;51.910;5.840;2023-09-12T13:15:36;7.53;;;6.72;;
6475;SDS011;3271;51.910;5.840;2023-09-12T13:18:02;10.52;;;8.68;;
6475;SDS011;3271;51.910;5.840;2023-09-12T13:20:29;11.15;;;9.88;;
6475;SDS011;3271;51.910;5.840;2023-09-12T13:22:55;9.27;;;8.38;;
6475;SDS011;3271;51.910;5.840;2023-09-12T13:25:21;11.85;;;9.45;;
6475;SDS011;3271;51.910;5.840;2023-09-12T13:27:48;12.90;;;9.98;;
6475;SDS011;3271;51.910;5.840;2023-09-12T13:30:14;11.82;;;9.45;;
6475;SDS011;3271;51.910;5.840;2023-09-12T13:32:40;10.60;;;9.50;;
6475;SDS011;3271;51.910;5.840;2023-09-12T13:35:06;9.88;;;8.88;;
6475;SDS011;3271;51.910;5.840;2023-09-12T13:37:33;12.20;;;9.60;;
6475;SDS011;3271;51.910;5.840;2023-09-12T13:39:58;11.48;;;10.30;;
6475;SDS011;3271;51.910;5.840;2023-09-12T13:42:24;12.30;;;9.77;;
6475;SDS011;3271;51.910;5.840;2023-09-12T13:44:55;12.68;;;10.00;;
6475;SDS011;3271;51.910;5.840;2023-09-12T13:47:21;15.48;;;11.30;;
6475;SDS011;3271;51.910;5.840;2023-09-12T13:49:48;13.00;;;9.35;;
6475;SDS011;3271;51.910;5.840;2023-09-12T13:52:13;12.35;;;9.05;;
6475;SDS011;3271;51.910;5.840;2023-09-12T13:54:40;10.77;;;8.68;;
6475;SDS011;3271;51.910;5.840;2023-09-12T13:57:05;12.68;;;10.02;;
6475;SDS011;3271;51.910;5.840;2023-09-12T13:59:31;12.52;;;8.93;;
6475;SDS011;3271;51.910;5.840;2023-09-12T14:01:57;10.23;;;8.50;;
6475;SDS011;3271;51.910;5.840;2023-09-12T14:04:23;9.90;;;7.95;;
6475;SDS011;3271;51.910;5.840;2023-09-12T14:06:49;9.00;;;8.02;;
6475;SDS011;3271;51.910;5.840;2023-09-12T14:09:15;10.82;;;8.07;;
6475;SDS011;3271;51.910;5.840;2023-09-12T14:11:41;10.45;;;8.75;;
6475;SDS011;3271;51.910;5.840;2023-09-12T14:14:08;11.60;;;8.80;;
6475;SDS011;3271;51.910;5.840;2023-09-12T14:16:34;8.95;;;8.00;;
6475;SDS011;3271;51.910;5.840;2023-09-12T14:19:00;9.82;;;8.43;;
6475;SDS011;3271;51.910;5.840;2023-09-12T14:21:26;9.85;;;7.25;;
6475;SDS011;3271;51.910;5.840;2023-09-12T14:23:51;9.77;;;7.60;;
6475;SDS011;3271;51.910;5.840;2023-09-12T14:26:17;8.77;;;7.55;;
6475;SDS011;3271;51.910;5.840;2023-09-12T14:28:43;10.43;;;7.82;;
6475;SDS011;3271;51.910;5.840;2023-09-12T14:31:09;11.07;;;6.90;;
6475;SDS011;3271;51.910;5.840;2023-09-12T14:33:39;8.43;;;6.63;;
6475;SDS011;3271;51.910;5.840;2023-09-12T14:36:05;10.77;;;7.25;;
6475;SDS011;3271;51.910;5.840;2023-09-12T14:38:31;7.35;;;6.50;;
6475;SDS011;3271;51.910;5.840;2023-09-12T14:40:57;8.60;;;7.72;;
6475;SDS011;3271;51.910;5.840;2023-09-12T14:43:23;7.95;;;7.15;;
6475;SDS011;3271;51.910;5.840;2023-09-12T14:45:49;8.70;;;7.03;;
6475;SDS011;3271;51.910;5.840;2023-09-12T14:48:15;7.95;;;7.10;;
6475;SDS011;3271;51.910;5.840;2023-09-12T14:50:41;7.90;;;7.00;;
6475;SDS011;3271;51.910;5.840;2023-09-12T14:53:07;10.63;;;7.70;;
6475;SDS011;3271;51.910;5.840;2023-09-12T14:55:33;8.73;;;7.43;;
6475;SDS011;3271;51.910;5.840;2023-09-12T14:57:59;8.68;;;6.57;;
6475;SDS011;3271;51.910;5.840;2023-09-12T15:00:25;7.93;;;7.07;;